This is the latest recevied weather packets stored in our database for station/object PA3EUZ. If no packets are shown the sender has not sent any weather packets the latest 10 day(s).
| Time | Temp. | Humidity | Pressure | Rain* | Wind** | Luminosity | Snow |
|---|---|---|---|---|---|---|---|
| 1777936518 | 13.33° C | 88% | 1012.2 hPa | 0 mm | - | 0 W/m² | - |
| 1777935618 | 13.33° C | 88% | 1012.2 hPa | 0 mm | - | 0 W/m² | - |
| 1777930216 | 13.89° C | 89% | 1012.4 hPa | 0 mm | - | 0 W/m² | - |
| 1777927516 | 14.44° C | 89% | 1012.5 hPa | 0 mm | - | 0 W/m² | - |
| 1777926616 | 13.89° C | 89% | 1012.4 hPa | 0 mm | - | 0 W/m² | - |
| 1777925717 | 14.44° C | 88% | 1012.4 hPa | 0 mm | - | 0 W/m² | - |
| 1777911336 | 18.89° C | 78% | 1011.8 hPa | 0 mm | - | 211 W/m² | - |
| 1777907736 | 19.44° C | 70% | 1012.1 hPa | 0 mm | - | 287 W/m² | - |
| 1777905036 | 19.44° C | 69% | 1012.4 hPa | 0 mm | - | 333 W/m² | - |
| 1777895118 | 18.33° C | 80% | 1012.9 hPa | 0 mm | - | 320 W/m² | - |
| 1777892418 | 18.33° C | 81% | 1013.2 hPa | 0 mm | - | 419 W/m² | - |
| 1777891518 | 18.33° C | 83% | 1013.2 hPa | 0 mm | - | 566 W/m² | - |
| 1777877138 | 13.89° C | 96% | 1012.7 hPa | 0 mm | - | 231 W/m² | - |
| 1777876238 | 13.33° C | 96% | 1012.6 hPa | 0 mm | - | 117 W/m² | - |
| 1777868118 | 11.11° C | 96% | 1011.7 hPa | 0 mm | - | 0 W/m² | - |
| 1777867218 | 11.67° C | 95% | 1011.6 hPa | 0 mm | - | 0 W/m² | - |
| 1777862738 | 11.67° C | 95% | 1011.7 hPa | 0 mm | - | 0 W/m² | - |
| 1777861818 | 11.11° C | 95% | 1011.5 hPa | 0 mm | - | 0 W/m² | - |
| 1777853717 | 11.11° C | 95% | 1011.3 hPa | 0 mm | - | 0 W/m² | - |
| 1777848338 | 11.67° C | 95% | 1011.5 hPa | 0 mm | - | 0 W/m² | - |
| 1777846518 | 12.22° C | 95% | 1011.4 hPa | 0 mm | - | 0 W/m² | - |
| 1777842036 | 12.78° C | 94% | 1011.1 hPa | 0 mm | - | 0 W/m² | - |
| 1777833917 | 13.89° C | 94% | 1010.3 hPa | 0.25 mm | - | 14 W/m² | - |
| 1777830316 | 13.89° C | 94% | 1010.2 hPa | 0.76 mm | - | 32 W/m² | - |
| 1777828517 | 13.89° C | 93% | 1010.2 hPa | 1.02 mm | - | 30 W/m² | - |
* Rain latest hour (hover to see other rain measurements)
** Current wind speed in m/s (hover to see current wind gust speed)